Las Vegas, NV

7:36 PM PDT on May 26, 2015 (GMT -0700)
Nellis AFB | | Change Station
CLOSE
Current Station
Airport
Location: Nellis AFB,
Elevation: 1870 ft
Nearby Weather Stations

Elev 1870 ft 36.24 °N, 115.03 °W | Updated 38 minutes ago

Partly Cloudy
Partly Cloudy
88 °F
Feels Like 88 °F
N
17
Wind Variable Wind from SE
Gusts 23 mph

Today
High -- | Low -- °F
--% Chance of Precip.
Yesterday
High -- | Low -- °F
Precip. -- in
5:27 AM 7:47 PM
Waxing Gibbous, 63% visible
Pressure 29.72 in
Visibility 10.0 miles
Clouds Clear
Dew Point 28 °F
Humidity 11%
Rainfall 0.00 in
Snow Depth Not available.
UV 0 out of 12
Pollen 6.40 out of 12
Air Quality Not available.
Flu Activity Sporadic
METAR KLSV 270158Z AUTO 14015G20KT 10SM CLR 31/M02 A2978 RMK AO2 SLP062 T03111023 $

More Conditions Fewer Conditions

Pressure 29.72 in
Visibility 10.0 miles
Clouds Clear
Dew Point 28 °F
Humidity 11%
Rainfall 0.00 in
Snow Depth Not available.
UV 0 out of 12
Pollen 6.40 out of 12
Air Quality Not available.
Flu Activity Sporadic
METAR KLSV 270158Z AUTO 14015G20KT 10SM CLR 31/M02 A2978 RMK AO2 SLP062 T03111023 $

More Conditions Fewer Conditions

10-Day Weather Forecast

Almanac

Astronomy

May. 26, 2015 Rise Set
Actual Time
Civil Twilight
Nautical Twilight
Astronomical Twilight
Moon
Length of Visible Light
Length of Day
Tomorrow will be .
, % of the Moon is Illuminated

Today's Extremes

State Highs State Lows

Community

WunderPhotos

Upload Photos

1,824,568 photos uploaded!

WunderBlogs® & News

Nearby

Air Quality

  Air Quality AQ Index Pollutant
Not available.

Snow Depth

Station Depth Elevation

Earthquake Activity

City Distance Mag. Time & Date
Minimum magnitude displayed is 2.5.

Coastal Water Temperatures

Place Temperature

Stations

Nearby Weather Stations

Station Location Temp. Windchill Dew Point Humidity Wind Precip. Elev Updated Type